createdAt,value
2022-10-05T00:00:36.757Z,1011.61
2022-10-05T00:01:37.463Z,1011.61
2022-10-05T00:02:36.955Z,1011.59
2022-10-05T00:03:36.963Z,1011.58
2022-10-05T00:04:37.046Z,1011.54
2022-10-05T00:05:37.163Z,1011.51
2022-10-05T00:06:37.349Z,1011.50
2022-10-05T00:07:37.481Z,1011.45
2022-10-05T00:08:38.347Z,1011.44
2022-10-05T00:09:37.794Z,1011.43
2022-10-05T00:10:37.905Z,1011.44
2022-10-05T00:11:39.453Z,1011.47
2022-10-05T00:12:38.134Z,1011.45
2022-10-05T00:13:38.246Z,1011.46
2022-10-05T00:14:38.349Z,1011.44
2022-10-05T00:15:38.458Z,1011.41
2022-10-05T00:16:38.641Z,1011.42
2022-10-05T00:17:38.715Z,1011.40
2022-10-05T00:18:38.870Z,1011.37
2022-10-05T00:19:38.946Z,1011.37
2022-10-05T00:20:39.087Z,1011.33
2022-10-05T00:21:39.222Z,1011.41
2022-10-05T00:22:39.335Z,1011.33
2022-10-05T00:23:39.476Z,1011.32
2022-10-05T00:24:39.616Z,1011.37
2022-10-05T00:25:39.781Z,1011.35
2022-10-05T00:26:39.914Z,1011.40
2022-10-05T00:27:40.071Z,1011.38
2022-10-05T00:28:40.232Z,1011.42
2022-10-05T00:29:40.382Z,1011.36
2022-10-05T00:30:40.507Z,1011.37
2022-10-05T00:31:40.697Z,1011.37
2022-10-05T00:32:41.503Z,1011.38
2022-10-05T00:33:40.974Z,1011.41
2022-10-05T00:34:41.077Z,1011.40
2022-10-05T00:35:41.164Z,1011.47
2022-10-05T00:36:41.308Z,1011.43
2022-10-05T00:37:41.443Z,1011.41
2022-10-05T00:38:41.590Z,1011.38
2022-10-05T00:39:41.704Z,1011.34
2022-10-05T00:40:41.784Z,1011.34
2022-10-05T00:41:41.919Z,1011.32
2022-10-05T00:42:42.054Z,1011.35
2022-10-05T00:43:42.225Z,1011.37
2022-10-05T00:44:42.369Z,1011.42
2022-10-05T00:45:42.549Z,1011.41
2022-10-05T00:46:42.814Z,1011.37
2022-10-05T00:47:42.791Z,1011.39
2022-10-05T00:48:42.916Z,1011.40
2022-10-05T00:49:43.057Z,1011.39
2022-10-05T00:50:43.182Z,1011.38
2022-10-05T00:51:43.317Z,1011.38
2022-10-05T00:52:43.452Z,1011.33
2022-10-05T00:53:43.675Z,1011.37
2022-10-05T00:54:43.734Z,1011.38
2022-10-05T00:55:43.835Z,1011.35
2022-10-05T00:56:44.316Z,1011.34
2022-10-05T00:57:44.146Z,1011.28
2022-10-05T00:58:44.303Z,1011.24
2022-10-05T00:59:44.463Z,1011.26
2022-10-05T01:00:44.616Z,1011.18
2022-10-05T01:01:44.801Z,1011.19
2022-10-05T01:02:44.932Z,1011.17
2022-10-05T01:03:45.055Z,1011.22
2022-10-05T01:04:46.623Z,1011.16
2022-10-05T01:05:45.341Z,1011.22
2022-10-05T01:06:45.812Z,1011.19
2022-10-05T01:07:45.679Z,1011.16
2022-10-05T01:08:45.763Z,1011.10
2022-10-05T01:09:45.918Z,1011.11
2022-10-05T01:10:46.052Z,1011.14
2022-10-05T01:11:46.203Z,1011.09
2022-10-05T01:12:46.306Z,1011.14
2022-10-05T01:13:46.445Z,1011.14
2022-10-05T01:14:46.592Z,1011.09
2022-10-05T01:15:46.752Z,1011.07
2022-10-05T01:16:47.116Z,1011.08
2022-10-05T01:17:47.019Z,1011.14
2022-10-05T01:18:47.122Z,1011.10
2022-10-05T01:19:47.264Z,1011.12
2022-10-05T01:20:48.879Z,1011.10
2022-10-05T01:21:47.600Z,1011.12
2022-10-05T01:22:47.717Z,1011.16
2022-10-05T01:23:47.881Z,1011.15
2022-10-05T01:24:48.032Z,1011.15
2022-10-05T01:25:48.108Z,1011.12
2022-10-05T01:26:48.544Z,1011.07
2022-10-05T01:27:48.339Z,1011.07
2022-10-05T01:28:48.448Z,1011.03
2022-10-05T01:29:48.588Z,1011.04
2022-10-05T01:30:48.744Z,1011.10
2022-10-05T01:31:48.957Z,1011.12
2022-10-05T01:32:49.040Z,1011.10
2022-10-05T01:33:49.171Z,1011.11
2022-10-05T01:34:49.296Z,1011.09
2022-10-05T01:35:49.430Z,1011.00
2022-10-05T01:36:49.815Z,1011.00
2022-10-05T01:37:49.701Z,1011.00
2022-10-05T01:38:49.830Z,1010.93
2022-10-05T01:39:49.976Z,1010.95
2022-10-05T01:40:50.118Z,1010.98
2022-10-05T01:41:50.278Z,1010.91
2022-10-05T01:42:50.428Z,1010.88
2022-10-05T01:43:50.589Z,1010.87
2022-10-05T01:44:50.721Z,1010.90
2022-10-05T01:45:50.904Z,1010.88
2022-10-05T01:46:50.951Z,1010.82
2022-10-05T01:47:51.117Z,1010.83
2022-10-05T01:48:51.191Z,1010.79
2022-10-05T01:49:51.323Z,1010.77
2022-10-05T01:50:51.485Z,1010.78
2022-10-05T01:51:51.617Z,1010.78
2022-10-05T01:52:52.718Z,1010.79
2022-10-05T01:53:51.879Z,1010.78
2022-10-05T01:54:51.970Z,1010.77
2022-10-05T01:55:52.098Z,1010.79
2022-10-05T01:56:52.240Z,1010.81
2022-10-05T01:57:52.387Z,1010.79
2022-10-05T01:58:52.526Z,1010.77
2022-10-05T01:59:52.679Z,1010.82
2022-10-05T02:00:52.826Z,1010.78
2022-10-05T02:01:52.957Z,1010.75
2022-10-05T02:02:53.031Z,1010.77
2022-10-05T02:03:53.195Z,1010.76
2022-10-05T02:05:02.320Z,1010.77
2022-10-05T02:05:54.384Z,1010.80
2022-10-05T02:06:53.513Z,1010.85
2022-10-05T02:07:53.648Z,1010.83
2022-10-05T02:08:53.868Z,1010.87
2022-10-05T02:09:53.896Z,1010.84
2022-10-05T02:10:54.057Z,1010.81
2022-10-05T02:11:54.202Z,1010.82
2022-10-05T02:12:54.328Z,1010.85
2022-10-05T02:13:54.476Z,1010.83
2022-10-05T02:14:54.577Z,1010.81
2022-10-05T02:15:55.346Z,1010.80
2022-10-05T02:16:54.816Z,1010.77
2022-10-05T02:17:54.946Z,1010.72
2022-10-05T02:18:55.101Z,1010.73
2022-10-05T02:19:55.198Z,1010.75
2022-10-05T02:20:55.324Z,1010.76
2022-10-05T02:21:55.457Z,1010.78
2022-10-05T02:22:55.602Z,1010.81
2022-10-05T02:23:55.742Z,1010.79
2022-10-05T02:24:55.837Z,1010.76
2022-10-05T02:25:55.976Z,1010.71
2022-10-05T02:26:56.122Z,1010.74
2022-10-05T02:27:56.281Z,1010.73
2022-10-05T02:28:56.346Z,1010.77
2022-10-05T02:29:56.445Z,1010.67
2022-10-05T02:30:56.590Z,1010.70
2022-10-05T02:31:56.791Z,1010.73
2022-10-05T02:32:56.846Z,1010.67
2022-10-05T02:33:56.993Z,1010.64
2022-10-05T02:34:57.094Z,1010.69
2022-10-05T02:35:57.735Z,1010.65
2022-10-05T02:36:57.353Z,1010.65
2022-10-05T02:37:57.493Z,1010.64
2022-10-05T02:38:57.637Z,1010.63
2022-10-05T02:39:57.766Z,1010.56
2022-10-05T02:40:57.915Z,1010.57
2022-10-05T02:41:58.023Z,1010.56
2022-10-05T02:42:58.126Z,1010.60
2022-10-05T02:43:58.254Z,1010.53
2022-10-05T02:44:58.408Z,1010.51
2022-10-05T02:45:58.576Z,1010.52
2022-10-05T02:46:58.846Z,1010.50
2022-10-05T02:47:58.735Z,1010.47
2022-10-05T02:48:58.868Z,1010.41
2022-10-05T02:49:59.008Z,1010.40
2022-10-05T02:50:59.126Z,1010.41
2022-10-05T02:51:59.275Z,1010.43
2022-10-05T02:52:59.431Z,1010.38
2022-10-05T02:53:59.592Z,1010.39
2022-10-05T02:54:59.683Z,1010.35
2022-10-05T02:55:59.848Z,1010.32
2022-10-05T02:57:00.034Z,1010.36
2022-10-05T02:58:00.101Z,1010.36
2022-10-05T02:59:00.256Z,1010.35
2022-10-05T03:00:00.401Z,1010.34
2022-10-05T03:01:00.660Z,1010.32
2022-10-05T03:02:00.712Z,1010.29
2022-10-05T03:03:00.751Z,1010.33
2022-10-05T03:04:00.892Z,1010.38
2022-10-05T03:05:01.021Z,1010.37
2022-10-05T03:06:01.181Z,1010.33
2022-10-05T03:07:01.265Z,1010.36
2022-10-05T03:08:01.411Z,1010.37
2022-10-05T03:09:08.549Z,1010.29
2022-10-05T03:10:01.648Z,1010.31
2022-10-05T03:11:01.731Z,1010.28
2022-10-05T03:12:01.898Z,1010.23
2022-10-05T03:13:02.029Z,1010.33
2022-10-05T03:14:02.184Z,1010.29
2022-10-05T03:15:02.391Z,1010.18
2022-10-05T03:16:02.569Z,1010.18
2022-10-05T03:17:02.593Z,1010.23
2022-10-05T03:18:02.765Z,1010.13
2022-10-05T03:19:02.887Z,1010.10
2022-10-05T03:20:03.159Z,1010.08
2022-10-05T03:21:03.218Z,1010.07
2022-10-05T03:22:03.385Z,1010.00
2022-10-05T03:23:03.551Z,1010.01
2022-10-05T03:24:03.707Z,1010.00
2022-10-05T03:25:05.266Z,1009.99
2022-10-05T03:26:03.998Z,1009.96
2022-10-05T03:27:04.142Z,1009.98
2022-10-05T03:28:04.530Z,1010.03
2022-10-05T03:29:04.567Z,1010.02
2022-10-05T03:30:04.649Z,1009.97
2022-10-05T03:31:04.763Z,1009.97
2022-10-05T03:32:04.899Z,1009.96
2022-10-05T03:33:04.926Z,1009.94
2022-10-05T03:34:05.067Z,1009.95
2022-10-05T03:35:05.239Z,1009.94
2022-10-05T03:36:05.428Z,1009.96
2022-10-05T03:37:05.568Z,1009.95
2022-10-05T03:38:05.674Z,1009.91
2022-10-05T03:39:05.779Z,1009.91
2022-10-05T03:40:05.920Z,1009.92
2022-10-05T03:41:06.038Z,1009.93
2022-10-05T03:42:06.200Z,1009.90
2022-10-05T03:43:06.312Z,1009.93
2022-10-05T03:44:06.436Z,1009.91
2022-10-05T03:45:06.798Z,1009.88
2022-10-05T03:46:06.831Z,1009.87
2022-10-05T03:47:06.888Z,1009.83
2022-10-05T03:48:06.984Z,1009.85
2022-10-05T03:49:07.264Z,1009.82
2022-10-05T03:50:07.247Z,1009.85
2022-10-05T03:51:07.496Z,1009.88
2022-10-05T03:52:07.498Z,1009.87
2022-10-05T03:53:07.667Z,1009.91
2022-10-05T03:54:07.754Z,1009.82
2022-10-05T03:55:07.845Z,1009.87
2022-10-05T03:56:07.990Z,1009.78
2022-10-05T03:57:08.138Z,1009.78
2022-10-05T03:58:08.299Z,1009.74
2022-10-05T03:59:08.385Z,1009.82
2022-10-05T04:00:08.528Z,1009.78
2022-10-05T04:01:08.676Z,1009.76
2022-10-05T04:02:08.805Z,1009.82
2022-10-05T04:03:08.874Z,1009.84
2022-10-05T04:04:08.985Z,1009.83
2022-10-05T04:05:09.087Z,1009.84
2022-10-05T04:06:09.229Z,1009.79
2022-10-05T04:07:09.334Z,1009.82
2022-10-05T04:08:09.506Z,1009.83
2022-10-05T04:09:09.588Z,1009.80
2022-10-05T04:10:09.728Z,1009.71
2022-10-05T04:11:09.874Z,1009.68
2022-10-05T04:12:10.008Z,1009.65
2022-10-05T04:13:10.248Z,1009.58
2022-10-05T04:14:10.286Z,1009.61
2022-10-05T04:15:13.114Z,1009.63
2022-10-05T04:16:10.616Z,1009.76
2022-10-05T04:17:10.675Z,1009.70
2022-10-05T04:18:10.823Z,1009.76
2022-10-05T04:19:10.958Z,1009.77
2022-10-05T04:20:11.037Z,1009.79
2022-10-05T04:21:11.143Z,1009.84
2022-10-05T04:22:11.323Z,1009.83
2022-10-05T04:23:11.427Z,1009.81
2022-10-05T04:24:11.601Z,1009.84
2022-10-05T04:25:11.733Z,1009.90
2022-10-05T04:26:11.783Z,1009.89
2022-10-05T04:27:11.953Z,1009.84
2022-10-05T04:28:12.151Z,1009.86
2022-10-05T04:29:12.244Z,1009.89
2022-10-05T04:30:12.488Z,1009.93
2022-10-05T04:31:12.555Z,1009.95
2022-10-05T04:32:12.656Z,1009.95
2022-10-05T04:33:12.746Z,1009.91
2022-10-05T04:34:12.953Z,1009.88
2022-10-05T04:35:13.007Z,1009.88
2022-10-05T04:36:13.159Z,1009.87
2022-10-05T04:37:13.266Z,1009.89
2022-10-05T04:38:13.420Z,1009.89
2022-10-05T04:39:13.494Z,1009.90
2022-10-05T04:40:13.635Z,1009.89
2022-10-05T04:41:13.745Z,1009.93
2022-10-05T04:42:13.853Z,1009.93
2022-10-05T04:43:13.945Z,1009.88
2022-10-05T04:44:14.115Z,1009.90
2022-10-05T04:45:14.196Z,1009.93
2022-10-05T04:46:14.397Z,1009.91
2022-10-05T04:47:14.475Z,1009.89
2022-10-05T04:48:14.622Z,1009.83
2022-10-05T04:49:14.743Z,1009.88
2022-10-05T04:50:16.324Z,1009.87
2022-10-05T04:51:14.963Z,1009.90
2022-10-05T04:52:15.173Z,1009.81
2022-10-05T04:53:15.169Z,1009.86
2022-10-05T04:54:15.321Z,1009.83
2022-10-05T04:55:15.423Z,1009.82
2022-10-05T04:56:15.523Z,1009.82
2022-10-05T04:57:15.664Z,1009.86
2022-10-05T04:58:15.864Z,1009.84
2022-10-05T04:59:15.932Z,1009.87
2022-10-05T05:00:16.104Z,1009.84
2022-10-05T05:01:16.246Z,1009.83
2022-10-05T05:02:16.365Z,1009.86
2022-10-05T05:03:16.435Z,1009.87
2022-10-05T05:04:16.580Z,1009.89
2022-10-05T05:05:16.753Z,1009.86
2022-10-05T05:06:18.207Z,1009.85
2022-10-05T05:07:16.991Z,1009.88
2022-10-05T05:08:17.159Z,1009.88
2022-10-05T05:09:17.262Z,1009.87
2022-10-05T05:10:17.401Z,1009.82
2022-10-05T05:11:22.330Z,1009.78
2022-10-05T05:12:18.691Z,1009.81
2022-10-05T05:13:17.823Z,1009.80
2022-10-05T05:14:17.941Z,1009.83
2022-10-05T05:15:18.041Z,1009.78
2022-10-05T05:16:18.212Z,1009.80
2022-10-05T05:17:18.369Z,1009.78
2022-10-05T05:18:18.536Z,1009.78
2022-10-05T05:19:18.630Z,1009.80
2022-10-05T05:20:18.782Z,1009.88
2022-10-05T05:21:18.934Z,1009.81
2022-10-05T05:22:19.061Z,1009.85
2022-10-05T05:23:19.214Z,1009.82
2022-10-05T05:24:19.302Z,1009.86
2022-10-05T05:25:19.451Z,1009.88
2022-10-05T05:26:19.562Z,1009.82
2022-10-05T05:27:19.718Z,1009.83
2022-10-05T05:28:19.916Z,1009.80
2022-10-05T05:29:19.964Z,1009.84
2022-10-05T05:30:20.081Z,1009.80
2022-10-05T05:31:20.272Z,1009.83
2022-10-05T05:32:20.363Z,1009.82
2022-10-05T05:33:20.541Z,1009.85
2022-10-05T05:34:20.615Z,1009.85
2022-10-05T05:35:20.744Z,1009.82
2022-10-05T05:36:23.364Z,1009.85
2022-10-05T05:37:20.990Z,1009.80
2022-10-05T05:38:21.111Z,1009.82
2022-10-05T05:39:21.364Z,1009.89
2022-10-05T05:40:21.339Z,1009.83
2022-10-05T05:41:21.503Z,1009.84
2022-10-05T05:42:21.579Z,1009.80
2022-10-05T05:43:21.752Z,1009.80
2022-10-05T05:44:21.983Z,1009.78
2022-10-05T05:45:21.971Z,1009.83
2022-10-05T05:46:33.979Z,1009.82
2022-10-05T05:47:23.227Z,1009.81
2022-10-05T05:48:22.339Z,1009.84
2022-10-05T05:49:22.516Z,1009.78
2022-10-05T05:50:22.553Z,1009.80
2022-10-05T05:51:22.699Z,1009.79
2022-10-05T05:52:22.800Z,1009.66
2022-10-05T05:53:22.941Z,1009.71
2022-10-05T05:54:23.109Z,1009.73
2022-10-05T05:55:27.638Z,1009.66
2022-10-05T05:56:24.300Z,1009.67
2022-10-05T05:57:23.442Z,1009.67
2022-10-05T05:58:23.543Z,1009.73
2022-10-05T05:59:23.688Z,1009.66
2022-10-05T06:00:23.802Z,1009.71
2022-10-05T06:01:32.803Z,1009.69
2022-10-05T06:02:25.172Z,1009.75
2022-10-05T06:03:24.306Z,1009.68
2022-10-05T06:04:24.331Z,1009.67
2022-10-05T06:05:24.443Z,1009.71
2022-10-05T06:06:24.573Z,1009.73
2022-10-05T06:07:30.162Z,1009.73
2022-10-05T06:08:25.837Z,1009.74
2022-10-05T06:09:25.011Z,1009.71
2022-10-05T06:10:25.081Z,1009.77
2022-10-05T06:11:25.240Z,1009.75
2022-10-05T06:12:25.329Z,1009.73
2022-10-05T06:13:25.491Z,1009.76
2022-10-05T06:14:25.654Z,1009.77
2022-10-05T06:15:25.770Z,1009.67
2022-10-05T06:16:25.910Z,1009.71
2022-10-05T06:17:26.040Z,1009.68
2022-10-05T06:18:26.215Z,1009.74
2022-10-05T06:19:26.338Z,1009.68
2022-10-05T06:20:26.410Z,1009.75
2022-10-05T06:21:26.566Z,1009.69
2022-10-05T06:22:26.657Z,1009.80
2022-10-05T06:23:26.802Z,1009.75
2022-10-05T06:24:26.962Z,1009.72
2022-10-05T06:25:27.098Z,1009.71
2022-10-05T06:26:27.257Z,1009.71
2022-10-05T06:27:27.389Z,1009.70
2022-10-05T06:28:27.561Z,1009.79
2022-10-05T06:29:27.637Z,1009.79
2022-10-05T06:30:27.728Z,1009.82
2022-10-05T06:31:27.893Z,1009.80
2022-10-05T06:32:27.980Z,1009.80
2022-10-05T06:33:28.118Z,1009.87
2022-10-05T06:34:28.249Z,1009.84
2022-10-05T06:35:28.398Z,1009.86
2022-10-05T06:36:28.512Z,1009.88
2022-10-05T06:37:28.663Z,1009.85
2022-10-05T06:38:28.766Z,1009.87
2022-10-05T06:39:28.967Z,1009.88
2022-10-05T06:40:29.031Z,1009.90
2022-10-05T06:41:29.187Z,1009.88
2022-10-05T06:42:29.274Z,1009.82
2022-10-05T06:43:29.429Z,1009.87
2022-10-05T06:44:29.585Z,1009.85
2022-10-05T06:45:29.686Z,1009.85
2022-10-05T06:46:29.815Z,1009.81
2022-10-05T06:47:29.908Z,1009.86
2022-10-05T06:48:30.020Z,1009.79
2022-10-05T06:49:30.159Z,1009.78
2022-10-05T06:50:30.298Z,1009.81
2022-10-05T06:51:30.460Z,1009.80
2022-10-05T06:52:30.548Z,1009.79
2022-10-05T06:53:30.703Z,1009.85
2022-10-05T06:54:30.808Z,1009.81
2022-10-05T06:55:30.955Z,1009.72
2022-10-05T06:56:31.047Z,1009.78
2022-10-05T06:57:31.201Z,1009.72
2022-10-05T06:58:31.301Z,1009.76
2022-10-05T06:59:31.436Z,1009.72
2022-10-05T07:00:31.576Z,1009.75
2022-10-05T07:01:31.810Z,1009.72
2022-10-05T07:02:31.873Z,1009.81
2022-10-05T07:03:31.948Z,1009.80
2022-10-05T07:04:36.589Z,1009.80
2022-10-05T07:05:32.237Z,1009.80
2022-10-05T07:06:32.349Z,1009.83
2022-10-05T07:07:32.498Z,1009.81
2022-10-05T07:08:32.597Z,1009.79
2022-10-05T07:09:32.758Z,1009.80
2022-10-05T07:10:32.850Z,1009.84
2022-10-05T07:11:32.997Z,1009.77
2022-10-05T07:12:33.125Z,1009.85
2022-10-05T07:13:33.258Z,1009.76
2022-10-05T07:14:33.418Z,1009.81
2022-10-05T07:15:33.528Z,1009.80
2022-10-05T07:16:33.680Z,1009.78
2022-10-05T07:17:33.751Z,1009.88
2022-10-05T07:18:33.851Z,1009.84
2022-10-05T07:19:34.008Z,1009.83
2022-10-05T07:20:34.117Z,1009.79
2022-10-05T07:21:34.227Z,1009.78
2022-10-05T07:22:34.572Z,1009.84
2022-10-05T07:23:34.458Z,1009.78
2022-10-05T07:24:34.607Z,1009.83
2022-10-05T07:25:34.747Z,1009.81
2022-10-05T07:26:34.824Z,1009.81
2022-10-05T07:27:34.979Z,1009.83
2022-10-05T07:28:35.116Z,1009.84
2022-10-05T07:29:35.801Z,1009.88
2022-10-05T07:30:35.357Z,1009.90
2022-10-05T07:31:35.446Z,1009.87
2022-10-05T07:32:35.578Z,1009.80
2022-10-05T07:33:35.729Z,1009.91
2022-10-05T07:34:35.870Z,1009.93
2022-10-05T07:35:36.035Z,1009.94
2022-10-05T07:36:36.116Z,1009.99
2022-10-05T07:37:36.267Z,1009.94
2022-10-05T07:38:36.418Z,1010.02
2022-10-05T07:39:59.044Z,1010.01
2022-10-05T07:40:37.667Z,1010.01
2022-10-05T07:41:36.826Z,1010.02
2022-10-05T07:42:57.927Z,1010.01
2022-10-05T07:44:00.518Z,1010.04
2022-10-05T07:44:38.137Z,1010.05
2022-10-05T07:45:37.294Z,1010.07
2022-10-05T07:46:37.396Z,1010.10
2022-10-05T07:47:37.485Z,1010.08
2022-10-05T07:48:37.638Z,1010.15
2022-10-05T07:49:37.812Z,1010.12
2022-10-05T07:50:37.856Z,1010.13
2022-10-05T07:51:38.016Z,1010.13
2022-10-05T07:52:38.113Z,1010.11
2022-10-05T07:53:38.259Z,1010.08
2022-10-05T07:54:38.397Z,1010.10
2022-10-05T07:55:38.531Z,1010.04
2022-10-05T07:56:38.777Z,1010.08
2022-10-05T07:57:38.785Z,1010.13
2022-10-05T07:58:38.941Z,1010.08
2022-10-05T07:59:39.038Z,1010.11
2022-10-05T08:00:39.272Z,1010.11
2022-10-05T08:01:39.366Z,1010.14
2022-10-05T08:02:39.504Z,1010.08
2022-10-05T08:03:39.555Z,1010.06
2022-10-05T08:04:41.906Z,1010.13
2022-10-05T08:05:39.798Z,1010.07
2022-10-05T08:06:39.960Z,1010.09
2022-10-05T08:07:40.067Z,1010.01
2022-10-05T08:08:40.167Z,1010.05
2022-10-05T08:09:40.302Z,1010.06
2022-10-05T08:10:40.447Z,1010.03
2022-10-05T08:11:40.587Z,1010.11
2022-10-05T08:12:40.759Z,1010.13
2022-10-05T08:13:40.834Z,1010.01
2022-10-05T08:14:40.989Z,1010.11
2022-10-05T08:15:41.126Z,1010.11
2022-10-05T08:16:41.215Z,1010.04
2022-10-05T08:17:41.322Z,1010.08
2022-10-05T08:18:41.491Z,1010.09
2022-10-05T08:19:41.576Z,1010.04
2022-10-05T08:20:41.729Z,1010.07
2022-10-05T08:21:41.827Z,1010.09
2022-10-05T08:22:42.008Z,1010.05
2022-10-05T08:23:42.136Z,1010.02
2022-10-05T08:24:42.215Z,1010.04
2022-10-05T08:25:42.358Z,1010.11
2022-10-05T08:26:42.517Z,1010.02
2022-10-05T08:27:42.670Z,1010.07
2022-10-05T08:28:42.757Z,1009.97
2022-10-05T08:29:42.864Z,1009.99
2022-10-05T08:30:43.009Z,1009.99
2022-10-05T08:31:43.144Z,1010.01
2022-10-05T08:32:43.317Z,1010.04
2022-10-05T08:33:43.406Z,1010.04
2022-10-05T08:34:43.536Z,1009.96
2022-10-05T08:35:43.617Z,1009.93
2022-10-05T08:36:43.759Z,1009.94
2022-10-05T08:37:43.886Z,1010.02
2022-10-05T08:38:43.978Z,1009.92
2022-10-05T08:39:44.113Z,1009.93
2022-10-05T08:40:44.258Z,1009.95
2022-10-05T08:41:44.668Z,1009.94
2022-10-05T08:42:44.505Z,1009.95
2022-10-05T08:43:44.597Z,1009.97
2022-10-05T08:44:44.766Z,1009.90
2022-10-05T08:45:44.910Z,1010.01
2022-10-05T08:46:44.977Z,1009.96
2022-10-05T08:47:45.078Z,1010.00
2022-10-05T08:48:45.235Z,1009.98
2022-10-05T08:49:45.334Z,1009.96
2022-10-05T08:50:45.506Z,1009.96
2022-10-05T08:51:45.875Z,1009.93
2022-10-05T08:52:45.735Z,1009.90
2022-10-05T08:53:45.864Z,1010.01
2022-10-05T08:54:45.966Z,1009.94
2022-10-05T08:55:46.078Z,1010.01
2022-10-05T08:56:46.175Z,1009.92
2022-10-05T08:57:46.336Z,1009.94
2022-10-05T08:58:46.486Z,1009.97
2022-10-05T08:59:46.599Z,1009.99
2022-10-05T09:00:46.756Z,1009.93
2022-10-05T09:01:47.132Z,1009.94
2022-10-05T09:02:47.037Z,1009.97
2022-10-05T09:03:47.064Z,1009.94
2022-10-05T09:04:47.217Z,1009.93
2022-10-05T09:05:47.335Z,1009.93
2022-10-05T09:06:47.488Z,1009.90
2022-10-05T09:07:47.619Z,1009.85
2022-10-05T09:08:47.715Z,1009.90
2022-10-05T09:09:47.826Z,1009.85
2022-10-05T09:10:47.968Z,1009.81
2022-10-05T09:11:48.497Z,1009.90
2022-10-05T09:12:48.186Z,1009.88
2022-10-05T09:13:48.275Z,1009.85
2022-10-05T09:14:56.628Z,1009.83
2022-10-05T09:15:49.579Z,1009.72
2022-10-05T09:16:48.696Z,1009.72
2022-10-05T09:17:48.843Z,1009.75
2022-10-05T09:18:48.938Z,1009.76
2022-10-05T09:19:49.058Z,1009.73
2022-10-05T09:20:49.166Z,1009.70
2022-10-05T09:21:49.789Z,1009.71
2022-10-05T09:22:49.409Z,1009.73
2022-10-05T09:23:49.560Z,1009.75
2022-10-05T09:24:49.665Z,1009.75
2022-10-05T09:25:49.804Z,1009.75
2022-10-05T09:26:49.957Z,1009.75
2022-10-05T09:27:50.066Z,1009.73
2022-10-05T09:28:50.236Z,1009.78
2022-10-05T09:29:50.314Z,1009.81
2022-10-05T09:30:50.508Z,1009.78
2022-10-05T09:31:50.574Z,1009.78
2022-10-05T09:32:50.717Z,1009.79
2022-10-05T09:33:50.817Z,1009.77
2022-10-05T09:34:50.966Z,1009.78
2022-10-05T09:35:51.079Z,1009.76
2022-10-05T09:36:51.197Z,1009.77
2022-10-05T09:37:51.313Z,1009.77
2022-10-05T09:38:51.419Z,1009.79
2022-10-05T09:39:51.596Z,1009.70
2022-10-05T09:40:51.682Z,1009.73
2022-10-05T09:41:51.790Z,1009.74
2022-10-05T09:42:51.980Z,1009.70
2022-10-05T09:43:52.079Z,1009.74
2022-10-05T09:44:52.167Z,1009.74
2022-10-05T09:45:52.335Z,1009.71
2022-10-05T09:46:52.430Z,1009.70
2022-10-05T09:47:52.589Z,1009.69
2022-10-05T09:48:52.686Z,1009.64
2022-10-05T09:49:52.810Z,1009.65
2022-10-05T09:50:52.909Z,1009.59
2022-10-05T09:51:53.064Z,1009.58
2022-10-05T09:52:53.167Z,1009.65
2022-10-05T09:53:53.320Z,1009.58
2022-10-05T09:54:53.445Z,1009.62
2022-10-05T09:55:53.555Z,1009.58
2022-10-05T09:56:53.700Z,1009.61
2022-10-05T09:57:53.807Z,1009.58
2022-10-05T09:58:53.897Z,1009.57
2022-10-05T09:59:54.157Z,1009.51
2022-10-05T10:01:03.650Z,1009.47
2022-10-05T10:01:55.312Z,1009.50
2022-10-05T10:02:54.490Z,1009.45
2022-10-05T10:03:54.518Z,1009.49
2022-10-05T10:04:54.626Z,1009.46
2022-10-05T10:05:54.746Z,1009.43
2022-10-05T10:06:54.861Z,1009.45
2022-10-05T10:07:54.997Z,1009.47
2022-10-05T10:08:55.127Z,1009.54
2022-10-05T10:09:55.278Z,1009.45
2022-10-05T10:10:55.413Z,1009.43
2022-10-05T10:11:55.516Z,1009.42
2022-10-05T10:12:55.607Z,1009.42
2022-10-05T10:13:55.762Z,1009.31
2022-10-05T10:15:00.534Z,1009.33
2022-10-05T10:15:57.017Z,1009.45
2022-10-05T10:16:56.127Z,1009.38
2022-10-05T10:17:56.219Z,1009.38
2022-10-05T10:18:56.305Z,1009.36
2022-10-05T10:19:56.457Z,1009.38
2022-10-05T10:20:56.566Z,1009.34
2022-10-05T10:21:56.748Z,1009.27
2022-10-05T10:22:56.834Z,1009.32
2022-10-05T10:23:56.979Z,1009.28
2022-10-05T10:24:57.119Z,1009.29
2022-10-05T10:25:57.279Z,1009.32
2022-10-05T10:26:57.398Z,1009.23
2022-10-05T10:27:57.554Z,1009.24
2022-10-05T10:28:57.628Z,1009.31
2022-10-05T10:29:57.791Z,1009.27
2022-10-05T10:30:57.977Z,1009.20
2022-10-05T10:31:58.020Z,1009.27
2022-10-05T10:32:58.148Z,1009.30
2022-10-05T10:33:58.251Z,1009.29
2022-10-05T10:34:58.355Z,1009.30
2022-10-05T10:36:00.554Z,1009.29
2022-10-05T10:36:58.667Z,1009.27
2022-10-05T10:37:58.790Z,1009.31
2022-10-05T10:38:58.869Z,1009.22
2022-10-05T10:39:59.034Z,1009.32
2022-10-05T10:40:59.140Z,1009.27
2022-10-05T10:41:59.269Z,1009.32
2022-10-05T10:42:59.358Z,1009.24
2022-10-05T10:43:59.509Z,1009.27
2022-10-05T10:44:59.643Z,1009.19
2022-10-05T10:45:59.825Z,1009.19
2022-10-05T10:46:59.985Z,1009.12
2022-10-05T10:47:59.991Z,1009.03
2022-10-05T10:49:00.093Z,1009.11
2022-10-05T10:50:00.210Z,1009.15
2022-10-05T10:51:00.358Z,1009.27
2022-10-05T10:52:00.462Z,1009.23
2022-10-05T10:53:00.579Z,1009.16
2022-10-05T10:54:00.657Z,1009.15
2022-10-05T10:55:00.811Z,1009.21
2022-10-05T10:56:00.927Z,1009.18
2022-10-05T10:57:01.038Z,1009.19
2022-10-05T10:58:02.607Z,1009.06
2022-10-05T10:59:01.259Z,1009.03
2022-10-05T11:00:01.375Z,1009.02
2022-10-05T11:01:01.469Z,1008.98
2022-10-05T11:02:01.785Z,1008.98
2022-10-05T11:03:01.786Z,1009.08
2022-10-05T11:04:01.862Z,1008.92
2022-10-05T11:05:01.973Z,1009.08
2022-10-05T11:06:02.109Z,1008.95
2022-10-05T11:07:02.231Z,1008.96
2022-10-05T11:08:02.474Z,1008.94
2022-10-05T11:09:02.467Z,1009.02
2022-10-05T11:10:02.563Z,1008.99
2022-10-05T11:11:02.732Z,1008.97
2022-10-05T11:12:02.810Z,1008.91
2022-10-05T11:13:02.931Z,1008.91
2022-10-05T11:14:03.071Z,1008.94
2022-10-05T11:15:03.157Z,1008.85
2022-10-05T11:16:03.437Z,1008.87
2022-10-05T11:17:03.420Z,1008.90
2022-10-05T11:18:03.579Z,1008.85
2022-10-05T11:19:03.717Z,1008.84
2022-10-05T11:20:05.052Z,1008.80
2022-10-05T11:21:03.907Z,1008.80
2022-10-05T11:22:04.079Z,1008.75
2022-10-05T11:23:04.175Z,1008.76
2022-10-05T11:24:04.287Z,1008.73
2022-10-05T11:25:04.400Z,1008.70
2022-10-05T11:26:04.512Z,1008.76
2022-10-05T11:27:04.650Z,1008.71
2022-10-05T11:28:04.858Z,1008.69
2022-10-05T11:29:04.918Z,1008.65
2022-10-05T11:30:05.235Z,1008.54
2022-10-05T11:31:05.222Z,1008.52
2022-10-05T11:32:05.292Z,1008.50
2022-10-05T11:33:05.400Z,1008.50
2022-10-05T11:34:05.520Z,1008.39
2022-10-05T11:35:05.629Z,1008.46
2022-10-05T11:36:05.780Z,1008.40
2022-10-05T11:37:06.475Z,1008.39
2022-10-05T11:38:06.053Z,1008.42
2022-10-05T11:39:06.140Z,1008.46
2022-10-05T11:40:06.480Z,1008.39
2022-10-05T11:41:06.454Z,1008.33
2022-10-05T11:42:06.542Z,1008.13
2022-10-05T11:43:06.660Z,1008.26
2022-10-05T11:44:07.146Z,1008.29
2022-10-05T11:45:06.894Z,1008.21
2022-10-05T11:46:07.110Z,1008.20
2022-10-05T11:47:07.173Z,1008.22
2022-10-05T11:48:07.345Z,1008.20
2022-10-05T11:49:07.443Z,1008.25
2022-10-05T11:50:07.570Z,1008.20
2022-10-05T11:51:07.673Z,1007.97
2022-10-05T11:52:07.819Z,1008.08
2022-10-05T11:53:07.986Z,1007.96
2022-10-05T11:54:08.083Z,1008.06
2022-10-05T11:55:11.323Z,1007.94
2022-10-05T11:56:08.333Z,1008.01
2022-10-05T11:57:08.444Z,1007.87
2022-10-05T11:58:08.604Z,1007.89
2022-10-05T11:59:08.711Z,1008.07
2022-10-05T12:00:08.825Z,1007.96
2022-10-05T12:01:09.055Z,1007.85
2022-10-05T12:02:09.648Z,1007.91
2022-10-05T12:03:09.430Z,1007.91
2022-10-05T12:04:09.436Z,1007.92
2022-10-05T12:05:10.187Z,1007.79
2022-10-05T12:06:09.588Z,1007.90
2022-10-05T12:07:09.745Z,1007.76